sensor_id;sensor_type;location;lat;lon;timestamp;pressure;altitude;pressure_sealevel;temperature;humidity
69535;BME280;56754;51.568;5.048;2023-04-07T00:01:27;101428.88;;;13.43;64.07
69535;BME280;56754;51.568;5.048;2023-04-07T00:03:52;101438.81;;;13.42;64.24
69535;BME280;56754;51.568;5.048;2023-04-07T00:06:17;101444.81;;;13.39;64.16
69535;BME280;56754;51.568;5.048;2023-04-07T00:08:42;101437.84;;;13.38;63.72
69535;BME280;56754;51.568;5.048;2023-04-07T00:11:08;101433.91;;;13.36;63.94
69535;BME280;56754;51.568;5.048;2023-04-07T00:13:33;101441.16;;;13.35;63.91
69535;BME280;56754;51.568;5.048;2023-04-07T00:15:58;101441.78;;;13.32;64.18
69535;BME280;56754;51.568;5.048;2023-04-07T00:18:24;101434.84;;;13.31;64.30
69535;BME280;56754;51.568;5.048;2023-04-07T00:20:49;101441.31;;;13.30;64.34
69535;BME280;56754;51.568;5.048;2023-04-07T00:23:14;101443.53;;;13.28;64.12
69535;BME280;56754;51.568;5.048;2023-04-07T00:25:40;101441.63;;;13.29;64.62
69535;BME280;56754;51.568;5.048;2023-04-07T00:28:05;101448.41;;;13.26;64.48
69535;BME280;56754;51.568;5.048;2023-04-07T00:30:30;101445.22;;;13.24;64.92
69535;BME280;56754;51.568;5.048;2023-04-07T00:32:55;101444.72;;;13.22;64.95
69535;BME280;56754;51.568;5.048;2023-04-07T00:35:21;101452.00;;;13.21;64.98
69535;BME280;56754;51.568;5.048;2023-04-07T00:37:46;101444.25;;;13.20;65.03
69535;BME280;56754;51.568;5.048;2023-04-07T00:40:11;101440.31;;;13.17;65.24
69535;BME280;56754;51.568;5.048;2023-04-07T00:42:37;101451.34;;;13.16;65.00
69535;BME280;56754;51.568;5.048;2023-04-07T00:45:02;101450.88;;;13.14;65.16
69535;BME280;56754;51.568;5.048;2023-04-07T00:47:28;101454.66;;;13.13;65.33
69535;BME280;56754;51.568;5.048;2023-04-07T00:49:53;101453.06;;;13.12;65.35
69535;BME280;56754;51.568;5.048;2023-04-07T00:52:18;101442.97;;;13.09;65.51
69535;BME280;56754;51.568;5.048;2023-04-07T00:54:44;101444.84;;;13.08;65.56
69535;BME280;56754;51.568;5.048;2023-04-07T00:57:10;101448.63;;;13.07;65.73
69535;BME280;56754;51.568;5.048;2023-04-07T00:59:35;101445.94;;;13.07;65.51
69535;BME280;56754;51.568;5.048;2023-04-07T01:02:06;101447.03;;;13.06;65.67
69535;BME280;56754;51.568;5.048;2023-04-07T01:04:39;101442.00;;;13.05;65.74
69535;BME280;56754;51.568;5.048;2023-04-07T01:07:15;101445.00;;;13.03;65.11
69535;BME280;56754;51.568;5.048;2023-04-07T01:09:50;101438.03;;;13.02;65.59
69535;BME280;56754;51.568;5.048;2023-04-07T01:12:38;101448.28;;;13.00;65.75
69535;BME280;56754;51.568;5.048;2023-04-07T01:15:10;101441.34;;;12.99;65.61
69535;BME280;56754;51.568;5.048;2023-04-07T01:17:38;101438.19;;;12.97;65.74
69535;BME280;56754;51.568;5.048;2023-04-07T01:20:10;101441.19;;;12.95;66.16
69535;BME280;56754;51.568;5.048;2023-04-07T01:22:41;101444.94;;;12.94;65.94
69535;BME280;56754;51.568;5.048;2023-04-07T01:25:31;101438.00;;;12.93;66.01
69535;BME280;56754;51.568;5.048;2023-04-07T01:28:13;101443.69;;;12.92;66.01
69535;BME280;56754;51.568;5.048;2023-04-07T01:30:40;101456.31;;;12.91;66.35
69535;BME280;56754;51.568;5.048;2023-04-07T01:33:09;101455.81;;;12.89;66.04
69535;BME280;56754;51.568;5.048;2023-04-07T01:35:35;101452.34;;;12.89;66.16
69535;BME280;56754;51.568;5.048;2023-04-07T01:38:03;101454.25;;;12.88;66.34
69535;BME280;56754;51.568;5.048;2023-04-07T01:40:29;101462.63;;;12.87;66.25
69535;BME280;56754;51.568;5.048;2023-04-07T01:42:57;101459.94;;;12.87;66.06
69535;BME280;56754;51.568;5.048;2023-04-07T01:45:25;101460.22;;;12.85;66.08
69535;BME280;56754;51.568;5.048;2023-04-07T01:47:52;101464.81;;;12.85;66.21
69535;BME280;56754;51.568;5.048;2023-04-07T01:50:20;101461.63;;;12.83;66.36
69535;BME280;56754;51.568;5.048;2023-04-07T01:52:46;101464.63;;;12.81;65.83
69535;BME280;56754;51.568;5.048;2023-04-07T01:55:12;101462.75;;;12.82;66.32
69535;BME280;56754;51.568;5.048;2023-04-07T01:57:37;101463.03;;;12.80;66.35
69535;BME280;56754;51.568;5.048;2023-04-07T02:00:04;101469.78;;;12.78;66.13
69535;BME280;56754;51.568;5.048;2023-04-07T02:02:32;101467.44;;;12.76;66.48
69535;BME280;56754;51.568;5.048;2023-04-07T02:05:00;101478.16;;;12.76;66.23
69535;BME280;56754;51.568;5.048;2023-04-07T02:07:38;101469.34;;;12.75;66.41
69535;BME280;56754;51.568;5.048;2023-04-07T02:10:07;101467.28;;;12.72;66.35
69535;BME280;56754;51.568;5.048;2023-04-07T02:12:36;101469.47;;;12.70;66.39
69535;BME280;56754;51.568;5.048;2023-04-07T02:15:04;101468.66;;;12.70;66.44
69535;BME280;56754;51.568;5.048;2023-04-07T02:17:32;101475.44;;;12.67;65.91
69535;BME280;56754;51.568;5.048;2023-04-07T02:20:00;101478.13;;;12.67;66.29
69535;BME280;56754;51.568;5.048;2023-04-07T02:22:25;101480.31;;;12.65;66.45
69535;BME280;56754;51.568;5.048;2023-04-07T02:24:51;101481.91;;;12.66;66.37
69535;BME280;56754;51.568;5.048;2023-04-07T02:27:16;101486.47;;;12.66;66.61
69535;BME280;56754;51.568;5.048;2023-04-07T02:29:42;101478.72;;;12.64;66.46
69535;BME280;56754;51.568;5.048;2023-04-07T02:32:07;101485.66;;;12.65;66.48
69535;BME280;56754;51.568;5.048;2023-04-07T02:34:32;101488.69;;;12.64;66.52
69535;BME280;56754;51.568;5.048;2023-04-07T02:36:58;101486.28;;;12.62;66.57
69535;BME280;56754;51.568;5.048;2023-04-07T02:39:23;101487.41;;;12.61;66.59
69535;BME280;56754;51.568;5.048;2023-04-07T02:41:48;101484.38;;;12.63;66.63
69535;BME280;56754;51.568;5.048;2023-04-07T02:44:13;101478.56;;;12.61;66.65
69535;BME280;56754;51.568;5.048;2023-04-07T02:46:39;101478.84;;;12.59;66.65
69535;BME280;56754;51.568;5.048;2023-04-07T02:49:04;101478.38;;;12.57;66.74
69535;BME280;56754;51.568;5.048;2023-04-07T02:51:29;101484.03;;;12.56;67.06
69535;BME280;56754;51.568;5.048;2023-04-07T02:53:55;101486.22;;;12.53;66.75
69535;BME280;56754;51.568;5.048;2023-04-07T02:56:20;101486.22;;;12.53;67.01
69535;BME280;56754;51.568;5.048;2023-04-07T02:58:45;101478.00;;;12.50;66.74
69535;BME280;56754;51.568;5.048;2023-04-07T03:01:10;101475.31;;;12.50;66.81
69535;BME280;56754;51.568;5.048;2023-04-07T03:03:36;101479.41;;;12.47;67.03
69535;BME280;56754;51.568;5.048;2023-04-07T03:06:01;101483.19;;;12.46;66.91
69535;BME280;56754;51.568;5.048;2023-04-07T03:08:26;101478.44;;;12.43;66.69
69535;BME280;56754;51.568;5.048;2023-04-07T03:10:52;101484.09;;;12.42;66.79
69535;BME280;56754;51.568;5.048;2023-04-07T03:13:17;101484.09;;;12.42;67.40
69535;BME280;56754;51.568;5.048;2023-04-07T03:15:42;101476.66;;;12.39;67.03
69535;BME280;56754;51.568;5.048;2023-04-07T03:18:08;101478.06;;;12.36;66.79
69535;BME280;56754;51.568;5.048;2023-04-07T03:20:33;101487.03;;;12.32;67.08
69535;BME280;56754;51.568;5.048;2023-04-07T03:22:58;101477.44;;;12.31;67.26
69535;BME280;56754;51.568;5.048;2023-04-07T03:25:24;101472.66;;;12.27;66.54
69535;BME280;56754;51.568;5.048;2023-04-07T03:27:49;101478.63;;;12.24;67.41
69535;BME280;56754;51.568;5.048;2023-04-07T03:30:15;101480.81;;;12.22;66.92
69535;BME280;56754;51.568;5.048;2023-04-07T03:32:40;101479.22;;;12.21;67.37
69535;BME280;56754;51.568;5.048;2023-04-07T03:35:06;101473.06;;;12.21;67.41
69535;BME280;56754;51.568;5.048;2023-04-07T03:37:31;101475.28;;;12.19;67.84
69535;BME280;56754;51.568;5.048;2023-04-07T03:39:57;101472.09;;;12.17;67.25
69535;BME280;56754;51.568;5.048;2023-04-07T03:42:22;101473.22;;;12.16;67.60
69535;BME280;56754;51.568;5.048;2023-04-07T03:44:47;101475.91;;;12.16;67.71
69535;BME280;56754;51.568;5.048;2023-04-07T03:47:12;101474.28;;;12.15;67.78
69535;BME280;56754;51.568;5.048;2023-04-07T03:49:38;101470.03;;;12.14;67.87
69535;BME280;56754;51.568;5.048;2023-04-07T03:52:04;101469.25;;;12.13;67.55
69535;BME280;56754;51.568;5.048;2023-04-07T03:54:29;101464.19;;;12.12;67.48
69535;BME280;56754;51.568;5.048;2023-04-07T03:56:54;101472.53;;;12.10;67.40
69535;BME280;56754;51.568;5.048;2023-04-07T03:59:20;101475.22;;;12.10;67.58
69535;BME280;56754;51.568;5.048;2023-04-07T04:01:45;101468.56;;;12.07;67.57
69535;BME280;56754;51.568;5.048;2023-04-07T04:04:10;101473.44;;;12.05;67.16
69535;BME280;56754;51.568;5.048;2023-04-07T04:06:36;101464.91;;;12.03;67.38
69535;BME280;56754;51.568;5.048;2023-04-07T04:09:01;101467.91;;;12.02;67.31
69535;BME280;56754;51.568;5.048;2023-04-07T04:11:27;101476.22;;;12.00;67.67
69535;BME280;56754;51.568;5.048;2023-04-07T04:13:52;101475.75;;;11.98;67.41
69535;BME280;56754;51.568;5.048;2023-04-07T04:16:17;101480.28;;;11.98;66.76
69535;BME280;56754;51.568;5.048;2023-04-07T04:18:43;101487.06;;;11.95;67.48
69535;BME280;56754;51.568;5.048;2023-04-07T04:21:08;101483.56;;;11.95;67.56
69535;BME280;56754;51.568;5.048;2023-04-07T04:23:33;101490.34;;;11.92;67.60
69535;BME280;56754;51.568;5.048;2023-04-07T04:25:59;101489.84;;;11.90;67.58
69535;BME280;56754;51.568;5.048;2023-04-07T04:28:24;101491.75;;;11.90;67.37
69535;BME280;56754;51.568;5.048;2023-04-07T04:30:49;101492.03;;;11.88;67.58
69535;BME280;56754;51.568;5.048;2023-04-07T04:33:15;101496.91;;;11.86;67.60
69535;BME280;56754;51.568;5.048;2023-04-07T04:35:40;101492.63;;;11.85;67.58
69535;BME280;56754;51.568;5.048;2023-04-07T04:38:05;101505.22;;;11.84;68.09
69535;BME280;56754;51.568;5.048;2023-04-07T04:40:30;101498.56;;;11.82;67.29
69535;BME280;56754;51.568;5.048;2023-04-07T04:42:56;101503.41;;;11.80;68.21
69535;BME280;56754;51.568;5.048;2023-04-07T04:45:21;101503.13;;;11.81;68.04
69535;BME280;56754;51.568;5.048;2023-04-07T04:47:46;101500.75;;;11.80;68.05
69535;BME280;56754;51.568;5.048;2023-04-07T04:50:11;101494.31;;;11.81;68.19
69535;BME280;56754;51.568;5.048;2023-04-07T04:52:37;101505.03;;;11.81;68.02
69535;BME280;56754;51.568;5.048;2023-04-07T04:55:02;101504.25;;;11.80;67.98
69535;BME280;56754;51.568;5.048;2023-04-07T04:57:28;101508.78;;;11.80;68.41
69535;BME280;56754;51.568;5.048;2023-04-07T04:59:53;101514.13;;;11.80;67.97
69535;BME280;56754;51.568;5.048;2023-04-07T05:02:18;101517.63;;;11.80;68.14
69535;BME280;56754;51.568;5.048;2023-04-07T05:04:43;101523.78;;;11.81;68.18
69535;BME280;56754;51.568;5.048;2023-04-07T05:07:09;101521.09;;;11.81;68.33
69535;BME280;56754;51.568;5.048;2023-04-07T05:09:34;101519.19;;;11.81;68.05
69535;BME280;56754;51.568;5.048;2023-04-07T05:11:59;101518.88;;;11.83;67.90
69535;BME280;56754;51.568;5.048;2023-04-07T05:14:24;101518.88;;;11.83;67.85
69535;BME280;56754;51.568;5.048;2023-04-07T05:16:50;101525.84;;;11.84;67.74
69535;BME280;56754;51.568;5.048;2023-04-07T05:19:15;101526.94;;;11.83;68.31
69535;BME280;56754;51.568;5.048;2023-04-07T05:21:40;101536.84;;;11.82;67.87
69535;BME280;56754;51.568;5.048;2023-04-07T05:24:06;101532.00;;;11.84;68.42
69535;BME280;56754;51.568;5.048;2023-04-07T05:26:31;101546.22;;;11.85;68.07
69535;BME280;56754;51.568;5.048;2023-04-07T05:28:56;101536.00;;;11.87;68.43
69535;BME280;56754;51.568;5.048;2023-04-07T05:31:21;101536.00;;;11.87;68.10
69535;BME280;56754;51.568;5.048;2023-04-07T05:33:47;101544.03;;;11.87;68.14
69535;BME280;56754;51.568;5.048;2023-04-07T05:36:12;101542.94;;;11.88;67.63
69535;BME280;56754;51.568;5.048;2023-04-07T05:38:37;101540.25;;;11.88;68.22
69535;BME280;56754;51.568;5.048;2023-04-07T05:41:02;101546.09;;;11.90;68.47
69535;BME280;56754;51.568;5.048;2023-04-07T05:43:28;101544.22;;;11.91;68.05
69535;BME280;56754;51.568;5.048;2023-04-07T05:45:53;101541.25;;;11.92;68.32
69535;BME280;56754;51.568;5.048;2023-04-07T05:48:18;101548.47;;;11.92;67.86
69535;BME280;56754;51.568;5.048;2023-04-07T05:50:44;101548.97;;;11.94;67.76
69535;BME280;56754;51.568;5.048;2023-04-07T05:53:09;101556.72;;;11.95;68.37
69535;BME280;56754;51.568;5.048;2023-04-07T05:55:34;101549.47;;;11.96;67.83
69535;BME280;56754;51.568;5.048;2023-04-07T05:57:59;101554.50;;;11.97;67.90
69535;BME280;56754;51.568;5.048;2023-04-07T06:00:25;101556.91;;;11.99;67.86
69535;BME280;56754;51.568;5.048;2023-04-07T06:02:50;101552.06;;;12.01;67.60
69535;BME280;56754;51.568;5.048;2023-04-07T06:05:16;101564.03;;;12.03;67.51
69535;BME280;56754;51.568;5.048;2023-04-07T06:07:41;101555.22;;;12.03;67.56
69535;BME280;56754;51.568;5.048;2023-04-07T06:10:07;101560.56;;;12.03;67.57
69535;BME280;56754;51.568;5.048;2023-04-07T06:12:32;101568.31;;;12.04;67.23
69535;BME280;56754;51.568;5.048;2023-04-07T06:14:57;101568.00;;;12.06;67.50
69535;BME280;56754;51.568;5.048;2023-04-07T06:17:23;101564.25;;;12.07;67.26
69535;BME280;56754;51.568;5.048;2023-04-07T06:19:48;101570.06;;;12.09;67.32
69535;BME280;56754;51.568;5.048;2023-04-07T06:22:14;101571.97;;;12.09;66.86
69535;BME280;56754;51.568;5.048;2023-04-07T06:24:39;101575.44;;;12.09;67.52
69535;BME280;56754;51.568;5.048;2023-04-07T06:27:04;101574.84;;;12.12;67.25
69535;BME280;56754;51.568;5.048;2023-04-07T06:29:31;101572.97;;;12.13;67.21
69535;BME280;56754;51.568;5.048;2023-04-07T06:31:57;101578.00;;;12.14;67.27
69535;BME280;56754;51.568;5.048;2023-04-07T06:34:22;101579.59;;;12.15;67.01
69535;BME280;56754;51.568;5.048;2023-04-07T06:36:47;101581.97;;;12.17;67.08
69535;BME280;56754;51.568;5.048;2023-04-07T06:39:13;101580.88;;;12.18;67.00
69535;BME280;56754;51.568;5.048;2023-04-07T06:41:38;101577.13;;;12.19;66.83
69535;BME280;56754;51.568;5.048;2023-04-07T06:44:03;101582.16;;;12.20;66.74
69535;BME280;56754;51.568;5.048;2023-04-07T06:46:29;101580.78;;;12.23;66.81
69535;BME280;56754;51.568;5.048;2023-04-07T06:48:54;101586.13;;;12.23;66.85
69535;BME280;56754;51.568;5.048;2023-04-07T06:51:20;101584.25;;;12.23;66.98
69535;BME280;56754;51.568;5.048;2023-04-07T06:53:45;101589.59;;;12.23;66.93
69535;BME280;56754;51.568;5.048;2023-04-07T06:56:10;101589.31;;;12.25;66.76
69535;BME280;56754;51.568;5.048;2023-04-07T06:58:36;101590.09;;;12.25;66.79
69535;BME280;56754;51.568;5.048;2023-04-07T07:01:03;101592.47;;;12.27;67.00
69535;BME280;56754;51.568;5.048;2023-04-07T07:03:29;101591.41;;;12.28;66.94
69535;BME280;56754;51.568;5.048;2023-04-07T07:05:55;101606.09;;;12.31;66.99
69535;BME280;56754;51.568;5.048;2023-04-07T07:08:20;101609.56;;;12.31;67.11
69535;BME280;56754;51.568;5.048;2023-04-07T07:10:45;101609.75;;;12.35;66.74
69535;BME280;56754;51.568;5.048;2023-04-07T07:13:11;101617.19;;;12.38;66.71
69535;BME280;56754;51.568;5.048;2023-04-07T07:15:36;101616.88;;;12.39;66.36
69535;BME280;56754;51.568;5.048;2023-04-07T07:18:01;101614.88;;;12.45;66.39
69535;BME280;56754;51.568;5.048;2023-04-07T07:20:26;101613.06;;;12.54;66.25
69535;BME280;56754;51.568;5.048;2023-04-07T07:22:52;101620.69;;;12.61;65.96
69535;BME280;56754;51.568;5.048;2023-04-07T07:25:17;101616.31;;;12.65;65.60
69535;BME280;56754;51.568;5.048;2023-04-07T07:27:42;101615.69;;;12.68;65.57
69535;BME280;56754;51.568;5.048;2023-04-07T07:30:08;101619.66;;;12.70;65.61
69535;BME280;56754;51.568;5.048;2023-04-07T07:32:33;101622.06;;;12.72;65.43
69535;BME280;56754;51.568;5.048;2023-04-07T07:34:59;101625.19;;;12.74;65.34
69535;BME280;56754;51.568;5.048;2023-04-07T07:37:24;101631.06;;;12.76;64.95
69535;BME280;56754;51.568;5.048;2023-04-07T07:39:49;101641.78;;;12.76;64.99
69535;BME280;56754;51.568;5.048;2023-04-07T07:42:15;101640.69;;;12.77;65.02
69535;BME280;56754;51.568;5.048;2023-04-07T07:44:40;101636.13;;;12.78;64.89
69535;BME280;56754;51.568;5.048;2023-04-07T07:47:05;101637.72;;;12.79;64.62
69535;BME280;56754;51.568;5.048;2023-04-07T07:49:30;101637.72;;;12.79;64.63
69535;BME280;56754;51.568;5.048;2023-04-07T07:51:56;101654.59;;;12.79;64.48
69535;BME280;56754;51.568;5.048;2023-04-07T07:54:21;101654.59;;;12.79;64.16
69535;BME280;56754;51.568;5.048;2023-04-07T07:56:46;101655.41;;;12.80;64.50
69535;BME280;56754;51.568;5.048;2023-04-07T07:59:12;101656.97;;;12.81;64.40
69535;BME280;56754;51.568;5.048;2023-04-07T08:01:37;101660.16;;;12.83;64.27
69535;BME280;56754;51.568;5.048;2023-04-07T08:04:02;101668.19;;;12.83;64.36
69535;BME280;56754;51.568;5.048;2023-04-07T08:06:27;101674.84;;;12.85;64.19
69535;BME280;56754;51.568;5.048;2023-04-07T08:08:53;101674.06;;;12.85;63.79
69535;BME280;56754;51.568;5.048;2023-04-07T08:11:18;101673.75;;;12.86;64.10
69535;BME280;56754;51.568;5.048;2023-04-07T08:13:44;101683.41;;;12.87;63.94
69535;BME280;56754;51.568;5.048;2023-04-07T08:16:09;101683.09;;;12.89;63.83
69535;BME280;56754;51.568;5.048;2023-04-07T08:18:34;101683.88;;;12.89;63.94
69535;BME280;56754;51.568;5.048;2023-04-07T08:20:59;101686.25;;;12.91;63.79
69535;BME280;56754;51.568;5.048;2023-04-07T08:23:25;101682.78;;;12.90;63.21
69535;BME280;56754;51.568;5.048;2023-04-07T08:25:50;101680.41;;;12.89;63.50
69535;BME280;56754;51.568;5.048;2023-04-07T08:28:15;101686.56;;;12.89;63.36
69535;BME280;56754;51.568;5.048;2023-04-07T08:30:40;101675.81;;;12.89;63.46
69535;BME280;56754;51.568;5.048;2023-04-07T08:33:06;101682.28;;;12.88;63.19
69535;BME280;56754;51.568;5.048;2023-04-07T08:35:31;101684.97;;;12.88;63.40
69535;BME280;56754;51.568;5.048;2023-04-07T08:37:57;101687.66;;;12.88;63.36
69535;BME280;56754;51.568;5.048;2023-04-07T08:40:22;101698.88;;;12.90;63.28
69535;BME280;56754;51.568;5.048;2023-04-07T08:42:48;101695.88;;;12.92;63.38
69535;BME280;56754;51.568;5.048;2023-04-07T08:45:15;101691.31;;;12.92;63.13
69535;BME280;56754;51.568;5.048;2023-04-07T08:47:41;101687.84;;;12.92;62.90
69535;BME280;56754;51.568;5.048;2023-04-07T08:50:09;101692.13;;;12.93;62.92
69535;BME280;56754;51.568;5.048;2023-04-07T08:52:44;101695.09;;;12.91;62.76
69535;BME280;56754;51.568;5.048;2023-04-07T08:55:10;101693.53;;;12.90;62.92
69535;BME280;56754;51.568;5.048;2023-04-07T08:57:36;101695.88;;;12.92;62.69
69535;BME280;56754;51.568;5.048;2023-04-07T09:00:02;101697.50;;;12.93;62.85
69535;BME280;56754;51.568;5.048;2023-04-07T09:02:27;101698.28;;;12.93;62.56
69535;BME280;56754;51.568;5.048;2023-04-07T09:04:53;101694.00;;;12.92;62.91
69535;BME280;56754;51.568;5.048;2023-04-07T09:07:19;101700.97;;;12.93;62.96
69535;BME280;56754;51.568;5.048;2023-04-07T09:09:44;101694.50;;;12.94;62.97
69535;BME280;56754;51.568;5.048;2023-04-07T09:12:09;101704.94;;;12.96;62.93
69535;BME280;56754;51.568;5.048;2023-04-07T09:14:35;101702.72;;;12.98;62.68
69535;BME280;56754;51.568;5.048;2023-04-07T09:17:01;101704.34;;;12.99;62.72
69535;BME280;56754;51.568;5.048;2023-04-07T09:19:26;101715.06;;;12.99;62.37
69535;BME280;56754;51.568;5.048;2023-04-07T09:21:52;101711.59;;;12.98;62.79
69535;BME280;56754;51.568;5.048;2023-04-07T09:24:29;101715.34;;;12.97;62.21
69535;BME280;56754;51.568;5.048;2023-04-07T09:27:14;101726.09;;;12.97;62.32
69535;BME280;56754;51.568;5.048;2023-04-07T09:29:41;101728.78;;;12.97;62.72
69535;BME280;56754;51.568;5.048;2023-04-07T09:32:07;101726.59;;;13.00;62.45
69535;BME280;56754;51.568;5.048;2023-04-07T09:34:37;101719.66;;;12.98;61.95
69535;BME280;56754;51.568;5.048;2023-04-07T09:37:04;101722.31;;;12.98;62.31
69535;BME280;56754;51.568;5.048;2023-04-07T09:39:30;101723.13;;;12.99;62.18
69535;BME280;56754;51.568;5.048;2023-04-07T09:41:56;101723.13;;;12.99;62.38
69535;BME280;56754;51.568;5.048;2023-04-07T09:44:22;101724.41;;;13.02;62.35
69535;BME280;56754;51.568;5.048;2023-04-07T09:49:19;101717.31;;;13.06;62.38
69535;BME280;56754;51.568;5.048;2023-04-07T09:52:02;101719.69;;;13.07;62.17
69535;BME280;56754;51.568;5.048;2023-04-07T09:54:40;101727.44;;;13.09;62.33
69535;BME280;56754;51.568;5.048;2023-04-07T09:57:10;101721.78;;;13.10;62.09
69535;BME280;56754;51.568;5.048;2023-04-07T09:59:37;101726.34;;;13.10;61.52
69535;BME280;56754;51.568;5.048;2023-04-07T10:02:04;101731.72;;;13.10;61.70
69535;BME280;56754;51.568;5.048;2023-04-07T10:04:29;101738.19;;;13.09;61.60
69535;BME280;56754;51.568;5.048;2023-04-07T10:06:56;101736.59;;;13.08;61.64
69535;BME280;56754;51.568;5.048;2023-04-07T10:09:22;101735.78;;;13.07;61.69
69535;BME280;56754;51.568;5.048;2023-04-07T10:11:50;101736.59;;;13.08;61.55
69535;BME280;56754;51.568;5.048;2023-04-07T10:14:17;101744.94;;;13.06;61.79
69535;BME280;56754;51.568;5.048;2023-04-07T10:16:43;101736.59;;;13.08;61.87
69535;BME280;56754;51.568;5.048;2023-04-07T10:19:10;101741.97;;;13.08;61.98
69535;BME280;56754;51.568;5.048;2023-04-07T10:21:38;101745.94;;;13.10;61.88
69535;BME280;56754;51.568;5.048;2023-04-07T10:24:08;101734.88;;;13.12;61.53
69535;BME280;56754;51.568;5.048;2023-04-07T10:26:37;101735.38;;;13.14;61.64
69535;BME280;56754;51.568;5.048;2023-04-07T10:29:09;101738.53;;;13.16;61.79
69535;BME280;56754;51.568;5.048;2023-04-07T10:31:36;101740.63;;;13.19;61.73
69535;BME280;56754;51.568;5.048;2023-04-07T10:34:03;101738.75;;;13.19;61.66
69535;BME280;56754;51.568;5.048;2023-04-07T10:36:28;101751.34;;;13.19;61.49
69535;BME280;56754;51.568;5.048;2023-04-07T10:41:35;101751.84;;;13.21;61.64
69535;BME280;56754;51.568;5.048;2023-04-07T10:44:01;101752.16;;;13.19;61.34
69535;BME280;56754;51.568;5.048;2023-04-07T10:49:12;101758.34;;;13.20;61.71
69535;BME280;56754;51.568;5.048;2023-04-07T10:51:37;101760.50;;;13.18;61.65
69535;BME280;56754;51.568;5.048;2023-04-07T10:54:16;101763.19;;;13.18;60.93
69535;BME280;56754;51.568;5.048;2023-04-07T10:57:07;101763.81;;;13.15;61.24
69535;BME280;56754;51.568;5.048;2023-04-07T10:59:33;101766.50;;;13.15;61.33
69535;BME280;56754;51.568;5.048;2023-04-07T11:04:41;101762.22;;;13.14;61.57
69535;BME280;56754;51.568;5.048;2023-04-07T11:07:07;101764.91;;;13.14;61.28
69535;BME280;56754;51.568;5.048;2023-04-07T11:09:33;101767.28;;;13.15;60.94
69535;BME280;56754;51.568;5.048;2023-04-07T11:11:59;101758.75;;;13.13;61.49
69535;BME280;56754;51.568;5.048;2023-04-07T11:14:31;101768.69;;;13.13;61.41
69535;BME280;56754;51.568;5.048;2023-04-07T11:16:58;101775.66;;;13.14;61.35
69535;BME280;56754;51.568;5.048;2023-04-07T11:19:24;101767.88;;;13.12;61.00
69535;BME280;56754;51.568;5.048;2023-04-07T11:21:49;101778.63;;;13.12;61.13
69535;BME280;56754;51.568;5.048;2023-04-07T11:24:34;101779.41;;;13.13;61.50
69535;BME280;56754;51.568;5.048;2023-04-07T11:26:59;101774.03;;;13.13;61.37
69535;BME280;56754;51.568;5.048;2023-04-07T11:29:32;101777.53;;;13.13;61.17
69535;BME280;56754;51.568;5.048;2023-04-07T11:31:59;101775.66;;;13.14;61.52
69535;BME280;56754;51.568;5.048;2023-04-07T11:34:32;101769.19;;;13.15;61.55
69535;BME280;56754;51.568;5.048;2023-04-07T11:37:17;101771.25;;;13.18;61.44
69535;BME280;56754;51.568;5.048;2023-04-07T11:39:43;101779.81;;;13.20;61.59
69535;BME280;56754;51.568;5.048;2023-04-07T11:42:08;101781.31;;;13.26;61.50
69535;BME280;56754;51.568;5.048;2023-04-07T11:44:33;101776.91;;;13.30;61.74
69535;BME280;56754;51.568;5.048;2023-04-07T11:47:00;101767.78;;;13.31;61.57
69535;BME280;56754;51.568;5.048;2023-04-07T11:49:26;101773.63;;;13.33;61.66
69535;BME280;56754;51.568;5.048;2023-04-07T11:52:00;101782.94;;;13.36;61.66
69535;BME280;56754;51.568;5.048;2023-04-07T11:54:26;101782.66;;;13.37;61.24
69535;BME280;56754;51.568;5.048;2023-04-07T11:56:51;101778.88;;;13.38;61.36
69535;BME280;56754;51.568;5.048;2023-04-07T11:59:18;101781.25;;;13.40;61.50
69535;BME280;56754;51.568;5.048;2023-04-07T12:01:44;101790.56;;;13.42;61.04
69535;BME280;56754;51.568;5.048;2023-04-07T12:04:12;101789.19;;;13.45;61.02
69535;BME280;56754;51.568;5.048;2023-04-07T12:06:37;101789.19;;;13.45;60.85
69535;BME280;56754;51.568;5.048;2023-04-07T12:09:07;101793.66;;;13.50;61.28
69535;BME280;56754;51.568;5.048;2023-04-07T12:11:33;101796.50;;;13.53;61.13
69535;BME280;56754;51.568;5.048;2023-04-07T12:13:59;101801.59;;;13.55;60.63
69535;BME280;56754;51.568;5.048;2023-04-07T12:16:25;101801.59;;;13.55;61.05
69535;BME280;56754;51.568;5.048;2023-04-07T12:18:51;101801.28;;;13.56;61.03
69535;BME280;56754;51.568;5.048;2023-04-07T12:21:17;101798.28;;;13.58;60.95
69535;BME280;56754;51.568;5.048;2023-04-07T12:23:42;101805.25;;;13.59;60.52
69535;BME280;56754;51.568;5.048;2023-04-07T12:26:08;101811.41;;;13.59;60.62
69535;BME280;56754;51.568;5.048;2023-04-07T12:28:33;101817.28;;;13.61;60.59
69535;BME280;56754;51.568;5.048;2023-04-07T12:30:58;101814.59;;;13.61;59.87
69535;BME280;56754;51.568;5.048;2023-04-07T12:33:24;101818.06;;;13.62;60.16
69535;BME280;56754;51.568;5.048;2023-04-07T12:35:49;101815.38;;;13.62;60.27
69535;BME280;56754;51.568;5.048;2023-04-07T12:38:14;101816.16;;;13.62;60.41
69535;BME280;56754;51.568;5.048;2023-04-07T12:40:40;101818.34;;;13.60;60.02
69535;BME280;56754;51.568;5.048;2023-04-07T12:43:05;101813.81;;;13.61;60.24
69535;BME280;56754;51.568;5.048;2023-04-07T12:45:30;101823.72;;;13.60;60.07
69535;BME280;56754;51.568;5.048;2023-04-07T12:47:56;101819.19;;;13.61;60.17
69535;BME280;56754;51.568;5.048;2023-04-07T12:50:22;101822.94;;;13.60;60.01
69535;BME280;56754;51.568;5.048;2023-04-07T12:52:47;101820.25;;;13.60;60.12
69535;BME280;56754;51.568;5.048;2023-04-07T12:55:13;101825.63;;;13.60;59.72
69535;BME280;56754;51.568;5.048;2023-04-07T12:57:38;101824.34;;;13.57;59.94